Latest Weather Observations for Territory Grape Farm

IDD60801

Issued at 5:31 pm CST Tuesday 30 June 2015 (issued every 30 minutes, with the page automatically refreshed every 10 minutes)

About weather observations | Map of weather stations | Latest weather observations for NT | Other Formats
Station Details ID: 015643 Name: TERRITORY GRAPE FARM Lat: -22.45 Lon: 133.64 Height: 565.6 m
Data from the previous 72 hours. | See also: Recent months at Territory Grape Farm
Date/Time
CST
Temp
°C
App
Temp
°C
Dew
Point
Rel
Hum
%
Delta-T
°C
Wind Press
QNH
hPa
Press
MSL
hPa
Rain
since 9 am
mm
Dir
 
Spd
km/h
Gust
km/h
Spd
kts
Gust
kts
30/05:30pm 21.7 17.9 5.6 35 8.2 - 15 17 8 9 1023.4 1022.6 -
30/05:00pm 22.5 18.6 5.4 33 8.8 - 15 19 8 10 1023.2 - -
30/04:30pm 22.9 - 4.9 31 9.2 - - - - - 1022.9 1022.1 -
30/04:00pm 23.3 - 4.8 30 9.5 - - - - - 1022.9 - -
30/03:30pm 23.7 - 3.1 26 10.2 - - - - - 1023.0 1022.2 -
30/03:00pm 23.5 - 6.7 34 8.9 - - - - - 1023.1 1022.3 0.0
30/02:30pm 23.7 21.0 7.3 35 8.8 - 11 15 6 8 1023.4 1022.6 -
30/02:00pm 22.8 - 8.1 39 8.0 - - - - - 1024.0 - -
30/01:30pm 21.8 - 8.3 42 7.3 - - - - - 1024.4 1023.6 -
30/01:00pm 21.7 - 8.6 43 7.1 - - - - - 1025.0 - -
30/12:30pm 21.4 - 9.3 46 6.6 - - - - - 1025.5 1024.8 -
30/12:00pm 21.0 18.2 9.9 49 6.1 - 15 19 8 10 1026.1 1025.3 -
30/11:30am 19.9 16.1 9.8 52 5.5 - 20 32 11 17 1026.5 1025.7 -
30/11:00am 19.0 14.8 9.8 55 5.0 - 22 30 12 16 1026.8 - -
30/10:30am 17.7 - 9.8 60 4.3 - - - - - 1027.1 1026.4 -
30/10:00am 16.2 - 10.1 67 3.3 - - - - - 1027.2 - -
30/09:30am 15.0 11.8 10.0 72 2.7 - 17 22 9 12 1027.1 1026.4 -
30/09:00am 13.7 10.1 9.9 78 2.0 - 19 24 10 13 1026.8 1026.0 0.0
30/08:30am 11.8 - 9.5 86 1.2 - - - - - 1026.4 1025.6 -
30/08:00am 10.1 - 9.0 93 0.6 - - - - - 1026.1 - -
30/07:30am 8.9 - 8.3 96 0.3 - - - - - 1025.5 1024.8 -
30/07:00am 8.6 - 7.8 95 0.4 - - - - - 1025.1 - -
30/06:30am 9.0 - 8.2 95 0.4 - - - - - 1024.8 1024.0 -
30/06:00am 9.2 7.6 8.6 96 0.3 - 7 9 4 5 1024.4 1023.6 -
30/05:30am 8.6 - 7.7 94 0.4 - - - - - 1024.2 1023.4 -
30/05:00am 8.2 - 7.1 93 0.5 - - - - - 1024.1 - -
30/04:30am 9.0 - 7.8 92 0.6 - - - - - 1024.1 1023.3 -
30/04:00am 9.3 - 7.4 88 0.9 - - - - - 1023.9 - -
30/03:30am 10.2 8.6 8.1 87 1.0 - 6 7 3 4 1023.9 1023.0 -
30/03:00am 10.6 - 8.4 86 1.1 - - - - - 1023.8 1022.9 0.0
30/02:30am 10.8 - 8.2 84 1.3 - - - - - 1024.1 1023.3 -
30/02:00am 11.4 9.7 8.3 81 1.6 - 7 7 4 4 1024.1 - -
30/01:30am 12.0 - 8.7 80 1.7 - - - - - 1024.1 1023.3 -
30/01:00am 12.0 10.4 8.1 77 2.0 - 6 6 3 3 1024.4 - -
30/12:30am 12.8 - 8.5 75 2.2 - - - - - 1024.3 1023.5 -
30/12:00am 13.6 11.5 8.4 71 2.7 - 9 9 5 5 1024.4 1023.6 -
 
Date/Time
CST
Temp
°C
App
Temp
°C
Dew
Point
Rel
Hum
%
Delta-T
°C
Wind Press
QNH
hPa
Press
MSL
hPa
Rain
since 9 am
mm
Dir
 
Spd
km/h
Gust
km/h
Spd
kts
Gust
kts
29/11:30pm 15.2 - 8.9 66 3.3 - - - - - 1024.7 1023.9 -
29/11:00pm 16.1 - 9.3 64 3.6 - - - - - 1024.6 - -
29/10:30pm 16.6 - 9.1 61 4.0 - - - - - 1024.5 1023.7 -
29/10:00pm 17.5 - 8.9 57 4.6 - - - - - 1024.3 - -
29/09:30pm 17.9 - 8.7 55 4.9 - - - - - 1024.2 1023.4 -
29/09:00pm 18.1 - 8.4 53 5.1 - - - - - 1024.0 1023.1 0.0
29/08:30pm 18.2 - 7.6 50 5.5 - - - - - 1023.5 1022.7 -
29/08:00pm 17.0 - 5.3 46 5.8 - - - - - 1023.1 - -
29/07:30pm 17.9 15.5 5.2 43 6.3 - 7 7 4 4 1022.7 1021.9 -
29/07:00pm 18.2 - 4.7 41 6.7 - - - - - 1022.4 - -
29/06:30pm 19.6 - 4.5 37 7.5 - - - - - 1022.1 1021.2 -
29/06:00pm 21.4 19.1 4.9 34 8.3 - 6 6 3 3 1021.7 1020.9 -
29/05:30pm 22.9 - 4.9 31 9.2 - - - - - 1021.3 1020.5 -
29/05:00pm 23.3 - 5.2 31 9.3 - - - - - 1021.2 - -
29/04:30pm 23.8 - 5.7 31 9.4 - - - - - 1021.2 1020.4 -
29/04:00pm 22.9 - 5.8 33 8.9 - - - - - 1021.2 - -
29/03:30pm 23.2 - 5.6 32 9.1 - - - - - 1021.1 1020.3 -
29/03:00pm 23.4 - 5.8 32 9.1 - - - - - 1021.3 1020.5 0.0
29/02:30pm 23.4 - 5.8 32 9.1 - - - - - 1021.5 1020.7 -
29/02:00pm 24.0 - 6.3 32 9.3 - - - - - 1021.8 - -
29/01:30pm 23.1 - 6.0 33 8.9 - - - - - 1022.2 1021.3 -
29/01:00pm 23.2 - 7.7 37 8.3 - - - - - 1022.8 - -
29/12:30pm 22.6 - 7.6 38 8.0 - - - - - 1023.5 1022.7 -
29/12:00pm 22.4 - 8.5 41 7.5 - - - - - 1023.9 1023.0 -
29/11:30am 21.6 - 8.5 43 7.1 - - - - - 1024.3 1023.5 -
29/11:00am 21.6 - 9.5 46 6.7 - - - - - 1024.5 - -
29/10:30am 20.2 - 9.7 51 5.7 - - - - - 1024.7 1023.9 -
29/10:00am 18.4 - 9.5 56 4.8 - - - - - 1024.9 - -
29/09:30am 17.1 - 9.8 62 3.9 - - - - - 1024.9 1024.1 -
29/09:00am 16.1 - 10.0 67 3.3 - - - - - 1024.7 1023.9 0.0
29/08:30am 14.3 - 9.1 71 2.7 - - - - - 1025.3 1024.5 -
29/08:00am 12.3 - 8.0 75 2.2 - - - - - 1025.0 - -
29/07:30am 11.1 - 7.8 80 1.6 - - - - - 1024.8 1024.0 -
29/07:00am 10.9 - 7.6 80 1.6 - - - - - 1024.7 - -
29/06:30am 10.6 - 7.1 79 1.7 - - - - - 1024.4 1023.6 -
29/06:00am 10.7 - 7.2 79 1.7 - - - - - 1024.2 1023.4 -
29/05:30am 10.1 - 6.6 79 1.7 - - - - - 1024.2 1023.4 -
29/05:00am 9.6 - 5.8 77 1.8 - - - - - 1023.9 - -
29/04:30am 10.2 - 5.8 74 2.1 - - - - - 1024.0 1023.1 -
29/04:00am 10.9 - 5.9 71 2.4 - - - - - 1024.1 - -
29/03:30am 11.6 - 6.1 69 2.6 - - - - - 1024.0 1023.1 -
29/03:00am 11.9 - 6.2 68 2.8 - - - - - 1024.0 1023.1 0.0
29/02:30am 11.6 - 5.7 67 2.8 - - - - - 1024.3 1023.5 -
29/02:00am 12.5 - 5.7 63 3.3 - - - - - 1024.4 - -
29/01:30am 12.4 - 5.3 62 3.4 - - - - - 1024.7 1023.9 -
29/01:00am 12.6 - 5.3 61 3.5 - - - - - 1024.7 - -
29/12:30am 12.9 - 4.8 58 3.8 - - - - - 1025.0 1024.2 -
29/12:00am 13.1 - 4.8 57 3.9 - - - - - 1025.4 1024.6 -
 
Date/Time
CST
Temp
°C
App
Temp
°C
Dew
Point
Rel
Hum
%
Delta-T
°C
Wind Press
QNH
hPa
Press
MSL
hPa
Rain
since 9 am
mm
Dir
 
Spd
km/h
Gust
km/h
Spd
kts
Gust
kts
28/11:30pm 13.2 - 4.6 56 4.1 - - - - - 1025.4 1024.6 -
28/11:00pm 11.9 - 3.4 56 3.9 - - - - - 1025.5 - -
28/10:30pm 12.8 - 3.5 53 4.3 - - - - - 1025.5 1024.8 -
28/10:00pm 13.1 - 3.2 51 4.6 - - - - - 1025.5 - -
28/09:30pm 13.5 - 3.0 49 4.8 - - - - - 1025.5 1024.8 -
28/09:00pm 13.0 - 2.6 49 4.7 - - - - - 1025.4 1024.6 0.0
28/08:30pm 13.3 - 2.5 48 4.9 - - - - - 1025.2 1024.4 -
28/08:00pm 13.6 - 2.5 47 5.1 - - - - - 1025.0 - -
28/07:30pm 14.0 - 2.3 45 5.3 - - - - - 1024.6 1023.8 -
28/07:00pm 15.3 - 1.8 40 6.1 - - - - - 1024.1 - -
28/06:30pm 16.8 - 1.7 36 6.9 - - - - - 1023.6 1022.8 -
28/06:00pm 19.6 - 2.5 32 8.1 - - - - - 1023.4 1022.6 -
28/05:30pm 21.2 - 2.5 29 9.0 - - - - - 1023.1 1022.3 -
28/05:00pm 22.0 - 2.7 28 9.4 - - - - - 1022.9 - -
28/04:30pm 22.0 - 2.7 28 9.4 - - - - - 1022.7 1021.9 -
28/04:00pm 22.4 - 3.0 28 9.5 - - - - - 1022.8 - -
28/03:30pm 22.4 - 2.5 27 9.7 - - - - - 1022.7 1021.9 -
28/03:00pm 22.6 - 3.2 28 9.5 - - - - - 1022.7 1021.9 0.0
28/02:30pm 22.3 - 2.9 28 9.5 - - - - - 1023.0 1022.2 -
28/02:00pm 22.9 - 3.4 28 9.7 - - - - - 1023.4 - -
28/01:30pm 22.0 - 3.2 29 9.2 - - - - - 1024.0 1023.1 -
28/01:00pm 21.9 - 4.5 32 8.8 - - - - - 1024.4 - -
28/12:30pm 21.3 - 4.8 34 8.3 - - - - - 1025.0 1024.2 -
28/12:00pm 20.6 - 5.4 37 7.7 - - - - - 1025.7 1024.9 -
28/11:30am 19.6 - 5.6 40 7.1 - - - - - 1026.0 1025.2 -
28/11:00am 18.7 - 6.5 45 6.3 - - - - - 1026.4 - -
28/10:30am 17.5 - 6.7 49 5.5 - - - - - 1026.8 1026.0 -
28/10:00am 16.7 - 7.1 53 4.9 - - - - - 1026.8 - -
28/09:30am 14.7 - 7.5 62 3.6 - - - - - 1026.7 1025.9 -
28/09:00am 11.8 - 6.5 70 2.6 - - - - - 1026.6 1025.8 0.0
28/08:30am 8.8 - 5.5 80 1.5 - - - - - 1026.5 1025.7 -
28/08:00am 6.2 - 4.4 88 0.8 - - - - - 1026.4 - -
28/07:30am 4.8 - 3.3 90 0.6 - - - - - 1026.2 1025.4 -
28/07:00am 5.2 - 3.9 91 0.6 - - - - - 1026.0 - -
28/06:30am 5.1 - 4.1 93 0.4 - - - - - 1025.9 1025.1 -
28/06:00am 4.9 - 3.2 89 0.7 - - - - - 1025.8 1025.0 -
28/05:30am 5.2 - 3.4 88 0.8 - - - - - 1025.4 1024.6 -
28/05:00am 6.0 - 3.8 86 1.0 - - - - - 1025.4 - -
28/04:30am 6.5 - 4.2 85 1.0 - - - - - 1025.4 1024.6 -
28/04:00am 6.8 - 3.9 82 1.3 - - - - - 1025.5 - -
28/03:30am 7.2 - 4.2 81 1.3 - - - - - 1025.8 1025.0 -
28/03:00am 7.7 - 4.3 79 1.5 - - - - - 1025.9 1025.1 0.0
28/02:30am 8.3 - 4.5 77 1.7 - - - - - 1026.0 1025.2 -
28/02:00am 8.4 - 4.2 75 1.9 - - - - - 1026.2 - -
28/01:30am 8.9 - 4.3 73 2.1 - - - - - 1026.4 1025.6 -
28/01:00am 9.7 - 4.5 70 2.4 - - - - - 1026.4 - -
28/12:30am 10.7 - 4.8 67 2.7 - - - - - 1026.4 1025.6 -
28/12:00am 10.9 - 4.6 65 2.9 - - - - - 1026.8 1026.0 -
 
Date/Time
CST
Temp
°C
App
Temp
°C
Dew
Point
Rel
Hum
%
Delta-T
°C
Wind Press
QNH
hPa
Press
MSL
hPa
Rain
since 9 am
mm
Dir
 
Spd
km/h
Gust
km/h
Spd
kts
Gust
kts
27/11:30pm 10.8 - 4.3 64 3.0 - - - - - 1027.0 1026.2 -
27/11:00pm 10.9 - 4.1 63 3.1 - - - - - 1027.1 - -
27/10:30pm 10.9 - 3.7 61 3.3 - - - - - 1026.9 1026.1 -
27/10:00pm 11.7 - 4.2 60 3.5 - - - - - 1026.9 - -
27/09:30pm 11.1 - 3.6 60 3.4 - - - - - 1027.0 1026.2 -
27/09:00pm 11.1 - 3.2 58 3.6 - - - - - 1026.6 1025.8 0.0
27/08:30pm 11.4 - 2.9 56 3.8 - - - - - 1026.4 1025.6 -
27/08:00pm 11.8 - 2.8 54 4.1 - - - - - 1026.2 - -
27/07:30pm 11.5 - 1.7 51 4.3 - - - - - 1025.8 1025.0 -
27/07:00pm 13.4 - 2.3 47 5.0 - - - - - 1025.3 - -
27/06:30pm 14.6 - 2.2 43 5.6 - - - - - 1024.7 1023.9 -
27/06:00pm 16.9 - 2.5 38 6.7 - - - - - 1024.3 1023.5 -

Other Formats:

Comma delimited format used in spreadsheet applications
http://www.bom.gov.au/fwo/IDD60801/IDD60801.94328.axf

JavaScript Object Notation format (JSON) in row-major order
http://www.bom.gov.au/fwo/IDD60801/IDD60801.94328.json